createdAt,value
2023-04-07T00:01:00.022Z,45.60
2023-04-07T00:03:27.641Z,45.82
2023-04-07T00:05:54.755Z,45.38
2023-04-07T00:08:21.706Z,45.43
2023-04-07T00:10:48.704Z,45.77
2023-04-07T00:13:16.313Z,45.69
2023-04-07T00:15:43.314Z,45.71
2023-04-07T00:18:10.319Z,45.96
2023-04-07T00:20:37.338Z,45.92
2023-04-07T00:23:04.376Z,45.58
2023-04-07T00:25:31.587Z,45.64
2023-04-07T00:27:58.518Z,45.88
2023-04-07T00:30:25.679Z,45.97
2023-04-07T00:32:52.974Z,46.12
2023-04-07T00:35:20.450Z,45.72
2023-04-07T00:37:47.483Z,46.23
2023-04-07T00:40:14.621Z,45.97
2023-04-07T00:42:41.780Z,46.44
2023-04-07T00:45:10.707Z,46.40
2023-04-07T00:47:38.729Z,45.99
2023-04-07T00:50:06.276Z,46.23
2023-04-07T00:52:33.826Z,46.29
2023-04-07T00:55:00.986Z,46.28
2023-04-07T00:57:28.008Z,46.51
2023-04-07T00:59:56.525Z,46.55
2023-04-07T01:02:34.194Z,46.74
2023-04-07T01:05:38.835Z,46.78
2023-04-07T01:08:35.415Z,46.76
2023-04-07T01:11:28.574Z,46.82
2023-04-07T01:13:58.537Z,46.61
2023-04-07T01:16:56.745Z,46.41
2023-04-07T01:19:49.055Z,46.89
2023-04-07T01:22:20.160Z,46.63
2023-04-07T01:25:02.148Z,46.95
2023-04-07T01:28:06.493Z,47.22
2023-04-07T01:30:38.193Z,46.72
2023-04-07T01:33:07.138Z,46.87
2023-04-07T01:35:37.155Z,46.95
2023-04-07T01:38:04.974Z,46.96
2023-04-07T01:40:34.090Z,46.84
2023-04-07T01:43:01.901Z,46.86
2023-04-07T01:45:30.916Z,46.78
2023-04-07T01:47:58.527Z,47.05
2023-04-07T01:50:27.431Z,46.97
2023-04-07T01:52:54.556Z,47.10
2023-04-07T01:55:23.730Z,47.28
2023-04-07T01:58:05.405Z,47.47
2023-04-07T02:00:34.542Z,47.31
2023-04-07T02:03:12.071Z,47.57
2023-04-07T02:05:40.606Z,47.39
2023-04-07T02:08:11.741Z,47.23
2023-04-07T02:10:39.923Z,47.57
2023-04-07T02:13:10.388Z,47.49
2023-04-07T02:15:38.243Z,47.69
2023-04-07T02:18:07.842Z,47.64
2023-04-07T02:20:36.587Z,47.83
2023-04-07T02:23:04.026Z,47.82
2023-04-07T02:25:32.767Z,48.01
2023-04-07T02:28:00.718Z,48.01
2023-04-07T02:30:28.589Z,47.87
2023-04-07T02:32:57.027Z,47.81
2023-04-07T02:35:24.382Z,47.83
2023-04-07T02:37:51.734Z,48.06
2023-04-07T02:40:18.927Z,48.35
2023-04-07T02:42:46.895Z,48.10
2023-04-07T02:45:14.572Z,48.41
2023-04-07T02:47:41.833Z,48.26
2023-04-07T02:50:09.590Z,48.36
2023-04-07T02:52:36.607Z,48.35
2023-04-07T02:55:10.187Z,48.30
2023-04-07T02:57:37.185Z,48.30
2023-04-07T03:00:09.398Z,48.47
2023-04-07T03:02:55.151Z,48.65
2023-04-07T03:05:22.645Z,48.56
2023-04-07T03:07:49.904Z,48.52
2023-04-07T03:10:17.285Z,48.55
2023-04-07T03:12:44.708Z,48.56
2023-04-07T03:15:12.146Z,48.72
2023-04-07T03:17:44.077Z,48.65
2023-04-07T03:20:11.323Z,48.73
2023-04-07T03:22:38.819Z,48.84
2023-04-07T03:25:11.216Z,48.69
2023-04-07T03:27:38.309Z,48.90
2023-04-07T03:30:08.910Z,48.68
2023-04-07T03:32:36.077Z,48.66
2023-04-07T03:35:03.201Z,48.76
2023-04-07T03:37:30.384Z,48.74
2023-04-07T03:39:57.524Z,48.79
2023-04-07T03:42:34.572Z,48.66
2023-04-07T03:45:04.653Z,48.69
2023-04-07T03:47:33.800Z,48.53
2023-04-07T03:50:03.564Z,48.54
2023-04-07T03:52:35.088Z,48.64
2023-04-07T03:55:11.753Z,48.55
2023-04-07T03:57:39.957Z,48.59
2023-04-07T04:00:07.652Z,48.33
2023-04-07T04:02:43.441Z,48.24
2023-04-07T04:05:14.917Z,48.05
2023-04-07T04:07:43.472Z,48.25
2023-04-07T04:10:11.025Z,48.26
2023-04-07T04:12:42.341Z,48.30
2023-04-07T04:15:11.898Z,48.12
2023-04-07T04:17:40.117Z,48.45
2023-04-07T04:20:09.020Z,48.09
2023-04-07T04:22:54.842Z,47.86
2023-04-07T04:25:21.926Z,47.89
2023-04-07T04:27:52.982Z,47.96
2023-04-07T04:30:23.004Z,48.00
2023-04-07T04:32:54.126Z,47.73
2023-04-07T04:35:56.622Z,47.40
2023-04-07T04:38:25.426Z,47.65
2023-04-07T04:40:57.869Z,47.74
2023-04-07T04:43:28.785Z,47.52
2023-04-07T04:45:57.081Z,47.49
2023-04-07T04:48:27.506Z,47.46
2023-04-07T04:50:54.934Z,47.26
2023-04-07T04:53:22.421Z,47.51
2023-04-07T04:55:55.033Z,47.70
2023-04-07T04:58:26.717Z,47.58
2023-04-07T05:01:00.508Z,47.46
2023-04-07T05:03:41.880Z,47.29
2023-04-07T05:06:17.899Z,47.16
2023-04-07T05:08:47.795Z,47.49
2023-04-07T05:11:17.361Z,47.71
2023-04-07T05:13:48.417Z,46.91
2023-04-07T05:16:15.509Z,47.01
2023-04-07T05:18:42.763Z,47.31
2023-04-07T05:21:12.737Z,47.10
2023-04-07T05:23:43.328Z,47.13
2023-04-07T05:26:11.729Z,46.89
2023-04-07T05:28:39.944Z,46.87
2023-04-07T05:31:13.988Z,46.45
2023-04-07T05:33:43.414Z,46.73
2023-04-07T05:36:10.631Z,46.23
2023-04-07T05:38:40.629Z,46.69
2023-04-07T05:41:12.668Z,46.28
2023-04-07T05:43:39.879Z,46.62
2023-04-07T05:46:07.094Z,46.38
2023-04-07T05:48:39.888Z,46.22
2023-04-07T05:51:10.894Z,45.85
2023-04-07T05:53:38.022Z,46.04
2023-04-07T05:56:06.121Z,45.91
2023-04-07T05:58:45.346Z,46.36
2023-04-07T06:01:14.522Z,46.42
2023-04-07T06:03:46.167Z,45.50
2023-04-07T06:06:21.778Z,45.50
2023-04-07T06:08:48.989Z,45.60
2023-04-07T06:11:16.048Z,45.97
2023-04-07T06:13:43.917Z,45.46
2023-04-07T06:16:25.334Z,45.91
2023-04-07T06:18:52.596Z,45.31
2023-04-07T06:21:19.816Z,45.20
2023-04-07T06:23:47.353Z,45.27
2023-04-07T06:26:15.023Z,45.23
2023-04-07T06:28:46.680Z,45.70
2023-04-07T06:31:15.266Z,44.94
2023-04-07T06:33:47.136Z,45.14
2023-04-07T06:36:23.983Z,45.17
2023-04-07T06:38:56.717Z,44.90
2023-04-07T06:41:23.989Z,44.92
2023-04-07T06:43:51.753Z,45.11
2023-04-07T06:46:22.284Z,44.96
2023-04-07T06:48:49.639Z,44.73
2023-04-07T06:51:16.669Z,44.51
2023-04-07T06:53:49.106Z,44.38
2023-04-07T06:56:16.800Z,44.71
2023-04-07T06:58:44.000Z,44.85
2023-04-07T07:01:11.409Z,44.49
2023-04-07T07:03:38.644Z,44.43
2023-04-07T07:06:06.475Z,44.32
2023-04-07T07:08:36.546Z,44.31
2023-04-07T07:11:03.831Z,44.33
2023-04-07T07:13:31.076Z,43.56
2023-04-07T07:15:58.353Z,43.76
2023-04-07T07:18:26.005Z,44.26
2023-04-07T07:20:53.131Z,44.09
2023-04-07T07:23:20.248Z,43.67
2023-04-07T07:25:48.318Z,43.60
2023-04-07T07:28:15.687Z,43.19
2023-04-07T07:30:42.697Z,43.40
2023-04-07T07:33:10.454Z,42.86
2023-04-07T07:35:38.074Z,42.79
2023-04-07T07:38:05.168Z,42.80
2023-04-07T07:40:32.795Z,42.86
2023-04-07T07:43:01.141Z,42.46
2023-04-07T07:45:28.432Z,42.37
2023-04-07T07:47:55.653Z,42.29
2023-04-07T07:50:22.868Z,42.51
2023-04-07T07:52:50.080Z,41.98
2023-04-07T07:55:17.161Z,41.84
2023-04-07T07:57:44.268Z,41.65
2023-04-07T08:00:12.298Z,41.53
2023-04-07T08:02:45.224Z,41.55
2023-04-07T08:05:13.034Z,40.81
2023-04-07T08:07:40.129Z,41.20
2023-04-07T08:10:07.464Z,40.97
2023-04-07T08:12:35.512Z,40.96
2023-04-07T08:15:05.581Z,41.08
2023-04-07T08:17:32.946Z,40.52
2023-04-07T08:20:01.532Z,40.50
2023-04-07T08:22:28.634Z,40.55
2023-04-07T08:24:56.054Z,40.23
2023-04-07T08:27:23.028Z,40.42
2023-04-07T08:30:02.481Z,39.61
2023-04-07T08:32:45.300Z,39.23
2023-04-07T08:35:12.978Z,39.73
2023-04-07T08:37:41.456Z,39.65
2023-04-07T08:40:08.891Z,39.42
2023-04-07T08:42:40.879Z,39.34
2023-04-07T08:45:10.039Z,39.28
2023-04-07T08:47:38.598Z,38.91
2023-04-07T08:50:09.396Z,38.42
2023-04-07T08:52:47.080Z,37.93
2023-04-07T08:55:14.964Z,38.76
2023-04-07T08:57:43.018Z,38.76
2023-04-07T09:00:11.434Z,38.61
2023-04-07T09:02:46.000Z,38.40
2023-04-07T09:05:14.863Z,38.25
2023-04-07T09:07:43.500Z,38.04
2023-04-07T09:10:10.904Z,38.20
2023-04-07T09:12:38.473Z,37.91
2023-04-07T09:15:08.942Z,37.75
2023-04-07T09:17:36.196Z,38.40
2023-04-07T09:20:04.372Z,37.54
2023-04-07T09:22:39.304Z,37.51
2023-04-07T09:25:16.775Z,37.33
2023-04-07T09:28:00.247Z,36.97
2023-04-07T09:30:28.837Z,37.53
2023-04-07T09:32:56.219Z,37.09
2023-04-07T09:35:24.807Z,36.71
2023-04-07T09:38:03.644Z,35.47
2023-04-07T09:40:30.789Z,35.99
2023-04-07T09:43:01.840Z,35.96
2023-04-07T09:45:35.160Z,36.05
2023-04-07T09:48:22.047Z,33.87
2023-04-07T09:50:52.248Z,35.17
2023-04-07T09:53:23.385Z,35.52
2023-04-07T09:55:50.861Z,34.93
2023-04-07T09:58:18.801Z,35.38
2023-04-07T10:00:46.870Z,35.11
2023-04-07T10:03:15.611Z,34.86
2023-04-07T10:05:43.798Z,34.79
2023-04-07T10:08:13.262Z,34.85
2023-04-07T10:10:43.495Z,34.39
2023-04-07T10:13:11.851Z,34.71
2023-04-07T10:15:40.233Z,33.95
2023-04-07T10:18:09.130Z,34.33
2023-04-07T10:20:42.236Z,33.66
2023-04-07T10:23:32.275Z,31.99
2023-04-07T10:26:01.362Z,33.69
2023-04-07T10:28:31.035Z,33.87
2023-04-07T10:30:58.712Z,33.50
2023-04-07T10:33:52.116Z,32.70
2023-04-07T10:36:21.181Z,33.64
2023-04-07T10:39:09.741Z,31.88
2023-04-07T10:41:38.438Z,32.96
2023-04-07T10:44:06.971Z,32.88
2023-04-07T10:46:47.262Z,31.46
2023-04-07T10:49:18.654Z,32.47
2023-04-07T10:52:12.421Z,31.56
2023-04-07T10:54:43.064Z,32.33
2023-04-07T10:57:14.672Z,31.33
2023-04-07T11:00:02.801Z,31.67
2023-04-07T11:02:30.032Z,31.87
2023-04-07T11:04:57.390Z,31.75
2023-04-07T11:07:45.096Z,31.38
2023-04-07T11:10:13.811Z,32.22
2023-04-07T11:12:40.895Z,31.98
2023-04-07T11:15:22.271Z,31.05
2023-04-07T11:18:17.070Z,31.61
2023-04-07T11:20:55.890Z,31.25
2023-04-07T11:23:25.355Z,31.70
2023-04-07T11:26:03.266Z,31.88
2023-04-07T11:28:31.098Z,31.69
2023-04-07T11:31:00.475Z,31.65
2023-04-07T11:33:29.693Z,31.46
2023-04-07T11:36:01.926Z,30.18
2023-04-07T11:38:35.108Z,30.98
2023-04-07T11:41:15.670Z,30.01
2023-04-07T11:43:43.104Z,30.63
2023-04-07T11:46:18.581Z,29.83
2023-04-07T11:48:47.411Z,30.96
2023-04-07T11:51:19.290Z,30.45
2023-04-07T11:53:50.469Z,30.84
2023-04-07T11:56:18.914Z,30.81
2023-04-07T11:58:50.535Z,30.41
2023-04-07T12:01:18.198Z,30.83
2023-04-07T12:04:05.031Z,30.56
2023-04-07T12:06:35.459Z,30.79
2023-04-07T12:09:02.991Z,30.66
2023-04-07T12:11:30.316Z,30.20
2023-04-07T12:13:57.519Z,30.38
2023-04-07T12:16:24.913Z,30.25
2023-04-07T12:18:52.184Z,29.91
2023-04-07T12:21:20.482Z,29.47
2023-04-07T12:23:48.949Z,29.22
2023-04-07T12:26:16.285Z,28.91
2023-04-07T12:28:43.421Z,28.39
2023-04-07T12:31:11.187Z,27.83
2023-04-07T12:33:38.346Z,27.75
2023-04-07T12:36:05.886Z,26.85
2023-04-07T12:38:32.900Z,26.32
2023-04-07T12:41:03.773Z,26.23
2023-04-07T12:43:31.735Z,26.31
2023-04-07T12:45:58.997Z,26.11
2023-04-07T12:48:27.683Z,26.31
2023-04-07T12:50:54.997Z,26.11
2023-04-07T12:53:23.089Z,25.83
2023-04-07T12:55:50.651Z,25.88
2023-04-07T12:58:19.223Z,25.59
2023-04-07T13:00:49.484Z,25.73
2023-04-07T13:03:17.051Z,25.08
2023-04-07T13:05:44.135Z,24.60
2023-04-07T13:08:13.547Z,23.93
2023-04-07T13:10:40.498Z,23.47
2023-04-07T13:13:12.633Z,22.86
2023-04-07T13:15:39.752Z,22.65
2023-04-07T13:18:07.151Z,22.45
2023-04-07T13:20:34.132Z,21.80
2023-04-07T13:23:08.141Z,21.29
2023-04-07T13:25:37.992Z,21.44
2023-04-07T13:28:05.957Z,20.97
2023-04-07T13:30:33.717Z,20.44
2023-04-07T13:33:03.018Z,20.09
2023-04-07T13:35:35.716Z,19.93
2023-04-07T13:38:04.258Z,20.05
2023-04-07T13:40:31.413Z,19.81
2023-04-07T13:42:59.600Z,19.62
2023-04-07T13:45:29.852Z,19.31
2023-04-07T13:47:57.049Z,19.15
2023-04-07T13:50:24.446Z,18.92
2023-04-07T13:52:51.836Z,18.53
2023-04-07T13:55:20.570Z,18.19
2023-04-07T13:57:50.943Z,17.65
2023-04-07T14:00:18.647Z,18.18
2023-04-07T14:02:47.834Z,18.33
2023-04-07T14:05:15.009Z,17.99
2023-04-07T14:07:41.936Z,18.06
2023-04-07T14:10:10.710Z,18.22
2023-04-07T14:12:39.033Z,18.26
2023-04-07T14:15:07.046Z,17.92
2023-04-07T14:17:34.146Z,17.84
2023-04-07T14:20:02.263Z,17.64
2023-04-07T14:22:30.247Z,17.63
2023-04-07T14:24:59.987Z,17.47
2023-04-07T14:27:28.133Z,17.74
2023-04-07T14:29:58.084Z,17.96
2023-04-07T14:32:25.241Z,17.90
2023-04-07T14:34:52.391Z,17.62
2023-04-07T14:37:24.196Z,17.78
2023-04-07T14:40:01.386Z,17.70
2023-04-07T14:42:30.891Z,17.87
2023-04-07T14:44:59.881Z,17.93
2023-04-07T14:47:27.704Z,18.15
2023-04-07T14:49:55.595Z,18.37
2023-04-07T14:52:22.705Z,18.35
2023-04-07T14:54:50.036Z,18.59
2023-04-07T14:57:17.367Z,18.54
2023-04-07T14:59:44.445Z,18.77
2023-04-07T15:02:11.535Z,18.85
2023-04-07T15:04:39.283Z,19.25
2023-04-07T15:07:06.460Z,19.50
2023-04-07T15:09:33.700Z,19.52
2023-04-07T15:12:01.067Z,19.80
2023-04-07T15:14:28.414Z,20.02
2023-04-07T15:16:55.864Z,19.95
2023-04-07T15:19:23.177Z,20.18
2023-04-07T15:21:50.517Z,20.06
2023-04-07T15:24:19.558Z,20.42
2023-04-07T15:26:46.930Z,20.49
2023-04-07T15:29:14.259Z,20.68
2023-04-07T15:31:41.528Z,20.95
2023-04-07T15:34:08.913Z,21.07
2023-04-07T15:36:36.315Z,21.26
2023-04-07T15:39:05.573Z,22.03
2023-04-07T15:41:33.430Z,22.44
2023-04-07T15:44:01.493Z,23.03
2023-04-07T15:46:29.442Z,22.99
2023-04-07T15:48:56.804Z,23.59
2023-04-07T15:51:24.300Z,23.82
2023-04-07T15:53:51.489Z,24.11
2023-04-07T15:56:18.823Z,24.51
2023-04-07T15:58:50.658Z,24.57
2023-04-07T16:01:21.179Z,24.93
2023-04-07T16:03:48.694Z,25.20
2023-04-07T16:06:16.564Z,25.84
2023-04-07T16:08:44.011Z,26.16
2023-04-07T16:11:11.570Z,25.92
2023-04-07T16:13:38.781Z,26.45
2023-04-07T16:16:07.839Z,26.34
2023-04-07T16:18:35.202Z,26.58
2023-04-07T16:21:04.548Z,27.21
2023-04-07T16:23:31.993Z,27.85
2023-04-07T16:25:59.290Z,27.82
2023-04-07T16:28:26.381Z,27.98
2023-04-07T16:30:53.435Z,27.73
2023-04-07T16:33:20.655Z,27.95
2023-04-07T16:35:47.860Z,28.62
2023-04-07T16:38:15.005Z,28.74
2023-04-07T16:40:56.840Z,28.75
2023-04-07T16:43:28.032Z,28.88
2023-04-07T16:45:56.655Z,29.05
2023-04-07T16:48:23.861Z,29.33
2023-04-07T16:50:51.051Z,29.16
2023-04-07T16:53:21.282Z,29.65
2023-04-07T16:55:48.842Z,29.38
2023-04-07T16:58:19.829Z,30.07
2023-04-07T17:00:46.954Z,30.49
2023-04-07T17:03:17.452Z,30.39
2023-04-07T17:05:44.923Z,30.56
2023-04-07T17:08:12.289Z,30.79
2023-04-07T17:10:42.040Z,30.76
2023-04-07T17:13:09.261Z,30.88
2023-04-07T17:15:38.122Z,30.85
2023-04-07T17:18:05.277Z,31.35
2023-04-07T17:20:32.650Z,31.67
2023-04-07T17:22:59.590Z,31.43
2023-04-07T17:25:26.722Z,31.77
2023-04-07T17:27:55.365Z,31.88
2023-04-07T17:30:25.365Z,32.18
2023-04-07T17:32:53.679Z,32.36
2023-04-07T17:35:21.979Z,32.19
2023-04-07T17:37:51.206Z,32.30
2023-04-07T17:40:19.084Z,32.59
2023-04-07T17:42:46.494Z,32.68
2023-04-07T17:45:18.084Z,32.88
2023-04-07T17:47:46.653Z,32.98
2023-04-07T17:50:19.084Z,33.20
2023-04-07T17:52:50.204Z,33.18
2023-04-07T17:55:20.196Z,32.75
2023-04-07T17:57:47.360Z,33.14
2023-04-07T18:00:14.616Z,33.32
2023-04-07T18:02:42.333Z,33.35
2023-04-07T18:05:13.450Z,33.22
2023-04-07T18:07:40.525Z,33.58
2023-04-07T18:10:08.453Z,33.37
2023-04-07T18:12:38.161Z,33.78
2023-04-07T18:15:07.787Z,33.78
2023-04-07T18:17:34.876Z,33.80
2023-04-07T18:20:04.138Z,33.83
2023-04-07T18:22:31.756Z,34.02
2023-04-07T18:25:00.387Z,34.18
2023-04-07T18:27:28.482Z,33.79
2023-04-07T18:29:58.755Z,34.59
2023-04-07T18:32:26.085Z,34.43
2023-04-07T18:34:53.905Z,34.30
2023-04-07T18:37:22.433Z,35.02
2023-04-07T18:39:49.577Z,34.71
2023-04-07T18:42:16.678Z,34.77
2023-04-07T18:44:44.936Z,34.39
2023-04-07T18:47:12.000Z,34.46
2023-04-07T18:49:40.309Z,34.63
2023-04-07T18:52:07.650Z,34.62
2023-04-07T18:54:34.913Z,34.72
2023-04-07T18:57:02.910Z,35.40
2023-04-07T18:59:30.512Z,35.33
2023-04-07T19:01:57.644Z,35.32
2023-04-07T19:04:25.085Z,34.86
2023-04-07T19:06:52.809Z,35.30
2023-04-07T19:09:20.030Z,35.28
2023-04-07T19:11:47.626Z,35.02
2023-04-07T19:14:14.625Z,35.34
2023-04-07T19:16:42.085Z,35.38
2023-04-07T19:19:10.228Z,35.54
2023-04-07T19:21:40.352Z,35.64
2023-04-07T19:24:07.903Z,35.68
2023-04-07T19:26:35.273Z,35.65
2023-04-07T19:29:03.652Z,35.66
2023-04-07T19:31:31.472Z,35.66
2023-04-07T19:33:59.315Z,35.82
2023-04-07T19:36:26.672Z,36.16
2023-04-07T19:38:53.786Z,36.11
2023-04-07T19:41:21.304Z,36.22
2023-04-07T19:43:48.921Z,36.24
2023-04-07T19:46:16.612Z,36.36
2023-04-07T19:48:44.039Z,36.06
2023-04-07T19:51:11.119Z,36.39
2023-04-07T19:53:38.327Z,35.79
2023-04-07T19:56:05.612Z,36.51
2023-04-07T19:58:34.525Z,36.65
2023-04-07T20:01:04.623Z,35.99
2023-04-07T20:03:31.781Z,36.43
2023-04-07T20:05:59.739Z,36.85
2023-04-07T20:08:26.873Z,36.69
2023-04-07T20:10:53.904Z,36.88
2023-04-07T20:13:20.920Z,36.69
2023-04-07T20:15:49.288Z,36.91
2023-04-07T20:18:19.288Z,36.65
2023-04-07T20:20:46.559Z,36.56
2023-04-07T20:23:16.121Z,36.80
2023-04-07T20:25:43.129Z,36.83
2023-04-07T20:28:10.278Z,37.11
2023-04-07T20:30:37.226Z,37.02
2023-04-07T20:33:04.565Z,36.91
2023-04-07T20:35:31.954Z,36.61
2023-04-07T20:38:00.314Z,36.88
2023-04-07T20:40:27.768Z,37.16
2023-04-07T20:42:54.840Z,37.11
2023-04-07T20:45:22.380Z,37.12
2023-04-07T20:47:49.522Z,37.12
2023-04-07T20:50:17.226Z,37.47
2023-04-07T20:52:44.208Z,37.22
2023-04-07T20:55:11.899Z,37.22
2023-04-07T20:57:41.747Z,37.41
2023-04-07T21:00:10.473Z,37.19
2023-04-07T21:02:38.416Z,37.39
2023-04-07T21:05:05.893Z,36.73
2023-04-07T21:07:32.808Z,37.05
2023-04-07T21:10:01.075Z,37.31
2023-04-07T21:12:28.119Z,36.61
2023-04-07T21:14:55.151Z,36.97
2023-04-07T21:17:22.300Z,37.05
2023-04-07T21:19:49.300Z,36.98
2023-04-07T21:22:16.348Z,37.19
2023-04-07T21:24:43.412Z,37.12
2023-04-07T21:27:10.618Z,36.52
2023-04-07T21:29:37.812Z,36.46
2023-04-07T21:32:05.567Z,36.64
2023-04-07T21:34:32.483Z,36.72
2023-04-07T21:36:59.560Z,36.39
2023-04-07T21:39:26.634Z,36.47
2023-04-07T21:41:53.602Z,36.60
2023-04-07T21:44:21.531Z,36.54
2023-04-07T21:46:49.039Z,36.22
2023-04-07T21:49:18.125Z,36.23
2023-04-07T21:51:45.090Z,36.33
2023-04-07T21:54:12.578Z,36.23
2023-04-07T21:56:39.573Z,36.31
2023-04-07T21:59:07.442Z,36.56
2023-04-07T22:01:34.786Z,36.05
2023-04-07T22:04:02.284Z,36.51
2023-04-07T22:06:29.484Z,36.09
2023-04-07T22:09:01.518Z,36.29
2023-04-07T22:11:29.249Z,36.28
2023-04-07T22:13:56.404Z,36.34
2023-04-07T22:16:23.509Z,36.59
2023-04-07T22:18:51.165Z,36.60
2023-04-07T22:21:18.503Z,36.73
2023-04-07T22:23:45.713Z,36.22
2023-04-07T22:26:13.533Z,36.32
2023-04-07T22:28:41.316Z,36.21
2023-04-07T22:31:08.241Z,36.40
2023-04-07T22:33:35.216Z,36.86
2023-04-07T22:36:03.751Z,36.46
2023-04-07T22:38:31.037Z,36.94
2023-04-07T22:40:57.891Z,36.37
2023-04-07T22:43:25.286Z,36.81
2023-04-07T22:45:52.226Z,36.92
2023-04-07T22:48:19.132Z,36.36
2023-04-07T22:50:46.389Z,36.76
2023-04-07T22:53:13.349Z,36.69
2023-04-07T22:55:40.866Z,37.28
2023-04-07T22:58:07.913Z,36.72
2023-04-07T23:00:35.319Z,36.81
2023-04-07T23:03:02.434Z,37.07
2023-04-07T23:05:29.535Z,37.24
2023-04-07T23:07:56.414Z,37.13
2023-04-07T23:10:23.552Z,37.40
2023-04-07T23:12:54.050Z,37.29
2023-04-07T23:15:21.077Z,37.52
2023-04-07T23:17:48.143Z,37.21
2023-04-07T23:20:15.523Z,37.38
2023-04-07T23:22:42.512Z,37.30
2023-04-07T23:25:09.720Z,37.80
2023-04-07T23:27:36.732Z,37.97
2023-04-07T23:30:04.725Z,38.11
2023-04-07T23:32:31.844Z,37.85
2023-04-07T23:34:58.937Z,37.76
2023-04-07T23:37:26.067Z,38.01
2023-04-07T23:39:53.359Z,38.10
2023-04-07T23:42:20.290Z,37.91
2023-04-07T23:44:47.391Z,37.88
2023-04-07T23:47:14.343Z,37.95
2023-04-07T23:49:41.274Z,38.17
2023-04-07T23:52:08.474Z,37.95
2023-04-07T23:54:35.995Z,38.28
2023-04-07T23:57:03.514Z,38.27
2023-04-07T23:59:30.669Z,38.37
